Time;durP1;ratioP1;P1;durP2;ratioP2;P2;SDS_P1;SDS_P2;PMS_P1;PMS_P2;Temp;Humidity;BMP_temperature;BMP_pressure;BME280_temperature;BME280_humidity;BME280_pressure;Samples;Min_cycle;Max_cycle;Signal;HPM_P1;HPM_P2
2022/10/23 00:01:18;;;;;;;45.78;19.83;;;10.80;99.90;;;;;;5107649;27;20369;-94
2022/10/23 00:03:44;;;;;;;34.28;18.10;;;10.80;99.90;;;;;;5090851;27;20058;-95
2022/10/23 00:06:10;;;;;;;36.25;18.13;;;10.80;99.90;;;;;;5075196;27;20052;-92
2022/10/23 00:08:36;;;;;;;35.33;17.55;;;10.80;99.90;;;;;;5077813;27;20122;-95
2022/10/23 00:11:14;;;;;;;30.75;18.20;;;10.80;99.90;;;;;;5081711;27;20086;-95
2022/10/23 00:13:39;;;;;;;30.73;16.88;;;10.80;99.90;;;;;;5094210;27;20058;-96
2022/10/23 00:16:05;;;;;;;33.00;17.90;;;10.80;99.90;;;;;;5090551;27;20043;-93
2022/10/23 00:18:31;;;;;;;43.60;19.63;;;10.70;99.90;;;;;;5092087;27;20039;-94
2022/10/23 00:20:57;;;;;;;48.53;20.10;;;10.70;99.90;;;;;;5075851;27;20173;-94
2022/10/23 00:23:25;;;;;;;40.85;20.77;;;10.70;99.90;;;;;;5108236;27;20411;-93
2022/10/23 00:25:51;;;;;;;38.03;18.58;;;10.70;99.90;;;;;;5078781;27;20040;-93
2022/10/23 00:28:17;;;;;;;31.90;16.55;;;10.80;99.90;;;;;;5085411;28;20085;-95
2022/10/23 00:30:42;;;;;;;32.95;19.48;;;10.60;99.90;;;;;;5085320;27;20048;-92
2022/10/23 00:33:09;;;;;;;37.63;17.25;;;10.60;99.90;;;;;;5112597;27;20051;-94
2022/10/23 00:35:38;;;;;;;41.22;20.40;;;10.60;99.90;;;;;;5101205;27;20039;-95
2022/10/23 00:38:03;;;;;;;32.03;17.95;;;10.60;99.90;;;;;;5069609;27;20047;-92
2022/10/23 00:40:29;;;;;;;37.30;19.67;;;10.70;99.90;;;;;;5127833;27;20061;-87
2022/10/23 00:42:55;;;;;;;40.25;18.52;;;10.60;99.90;;;;;;5141381;27;20023;-90
2022/10/23 00:45:26;;;;;;;40.60;18.73;;;10.70;99.90;;;;;;5123047;27;20031;-93
2022/10/23 00:47:52;;;;;;;37.50;19.17;;;10.60;99.90;;;;;;5120785;27;20051;-96
2022/10/23 00:50:18;;;;;;;37.05;20.08;;;10.70;99.90;;;;;;5085719;27;20097;-94
2022/10/23 00:52:45;;;;;;;37.83;19.70;;;10.70;99.90;;;;;;5084458;27;20039;-94
2022/10/23 00:55:11;;;;;;;44.03;20.33;;;10.80;99.90;;;;;;5068412;27;20084;-94
2022/10/23 00:57:39;;;;;;;32.90;19.52;;;10.70;99.90;;;;;;5084624;27;20102;-93
2022/10/23 01:00:06;;;;;;;33.92;19.05;;;10.70;99.90;;;;;;5083947;27;20126;-94
2022/10/23 01:02:31;;;;;;;47.83;19.10;;;10.70;99.90;;;;;;5085996;27;20150;-94
2022/10/23 01:04:57;;;;;;;40.67;20.45;;;10.70;99.90;;;;;;5085282;27;20093;-94
2022/10/23 01:07:35;;;;;;;40.95;19.30;;;10.70;99.90;;;;;;5101174;27;20110;-93
2022/10/23 01:10:38;;;;;;;48.80;20.50;;;10.70;99.90;;;;;;5084387;27;20099;-95
2022/10/23 01:13:28;;;;;;;37.17;18.65;;;10.80;99.90;;;;;;5121380;27;20076;-95
2022/10/23 01:16:22;;;;;;;42.58;20.08;;;10.70;99.90;;;;;;5090440;27;20043;-95
2022/10/23 01:18:50;;;;;;;;;;;10.70;99.90;;;;;;5090877;27;20062;-95
2022/10/23 01:21:58;;;;;;;43.58;19.35;;;10.70;99.90;;;;;;5101804;27;19926;-94
2022/10/23 01:24:51;;;;;;;41.72;19.17;;;10.70;99.90;;;;;;5116633;27;20063;-94
2022/10/23 01:27:30;;;;;;;40.50;20.58;;;10.70;99.90;;;;;;5103565;27;20070;-94
2022/10/23 01:30:06;;;;;;;43.15;18.67;;;10.70;99.90;;;;;;5101237;27;20138;-94
2022/10/23 01:33:00;;;;;;;43.67;20.35;;;10.60;99.90;;;;;;5100128;27;20084;-93
2022/10/23 01:36:02;;;;;;;38.10;18.80;;;10.70;99.90;;;;;;5115859;27;20051;-95
2022/10/23 01:38:39;;;;;;;32.75;17.70;;;10.60;99.90;;;;;;5047424;27;20063;-95
2022/10/23 01:41:16;;;;;;;33.00;16.10;;;10.60;99.90;;;;;;5086728;28;20463;-96
2022/10/23 01:43:46;;;;;;;32.88;15.13;;;10.50;99.90;;;;;;5087339;28;20051;-96
2022/10/23 01:46:15;;;;;;;22.45;13.50;;;10.40;99.90;;;;;;5103981;27;20053;-93
2022/10/23 01:48:41;;;;;;;23.00;13.65;;;10.30;99.90;;;;;;5102482;27;20059;-94
2022/10/23 01:51:07;;;;;;;16.08;11.80;;;10.10;99.90;;;;;;5068349;28;20073;-94
2022/10/23 01:53:37;;;;;;;20.10;12.57;;;10.00;99.90;;;;;;5067792;27;20074;-96
2022/10/23 01:56:03;;;;;;;22.60;13.20;;;9.90;99.90;;;;;;5114084;27;20051;-87
2022/10/23 01:58:29;;;;;;;23.05;13.68;;;10.50;99.90;;;;;;5106181;27;20019;-88
2022/10/23 02:00:56;;;;;;;23.05;14.13;;;9.90;99.90;;;;;;5122880;28;20038;-93
2022/10/23 02:03:22;;;;;;;25.92;13.75;;;9.80;99.90;;;;;;5103612;27;20051;-93
2022/10/23 02:05:47;;;;;;;26.58;14.93;;;9.80;99.90;;;;;;5097621;27;20058;-94
2022/10/23 02:08:13;;;;;;;21.60;14.73;;;8.60;99.90;;;;;;5097319;27;20046;-94
2022/10/23 02:10:52;;;;;;;19.80;13.23;;;9.80;99.90;;;;;;5079194;27;20047;-94
2022/10/23 02:13:21;;;;;;;19.15;13.43;;;9.70;99.90;;;;;;5094222;27;20188;-94
2022/10/23 02:15:49;;;;;;;18.23;14.18;;;9.70;99.90;;;;;;5106330;27;20046;-96
2022/10/23 02:18:39;;;;;;;22.40;13.82;;;9.70;99.90;;;;;;5089389;27;20039;-93
2022/10/23 02:21:16;;;;;;;20.40;13.45;;;9.70;99.90;;;;;;5107115;27;20043;-96
2022/10/23 02:23:59;;;;;;;21.30;14.43;;;9.80;99.90;;;;;;5090211;27;20054;-95
2022/10/23 02:26:40;;;;;;;26.20;15.20;;;9.80;99.90;;;;;;5072244;27;20135;-95
2022/10/23 02:29:29;;;;;;;19.98;14.13;;;10.10;99.90;;;;;;5102352;27;20054;-94
2022/10/23 02:31:54;;;;;;;20.20;15.00;;;9.80;99.90;;;;;;5106950;27;20042;-92
2022/10/23 02:34:20;;;;;;;25.65;16.67;;;9.90;99.90;;;;;;5105044;27;20137;-95
2022/10/23 02:36:46;;;;;;;27.20;17.58;;;10.00;99.90;;;;;;5084382;27;20039;-95
2022/10/23 02:39:11;;;;;;;27.10;16.98;;;10.10;99.90;;;;;;5121707;27;20534;-93
2022/10/23 02:41:37;;;;;;;27.75;16.35;;;10.10;99.90;;;;;;5119502;27;20046;-96
2022/10/23 02:44:29;;;;;;;27.17;17.52;;;10.20;99.90;;;;;;5129438;27;20043;-94
2022/10/23 02:47:27;;;;;;;29.92;18.75;;;10.20;99.90;;;;;;5062531;27;20058;-93
2022/10/23 02:50:11;;;;;;;36.65;21.20;;;10.20;99.90;;;;;;5068411;27;20111;-95
2022/10/23 02:53:14;;;;;;;40.05;20.13;;;10.30;99.90;;;;;;5127129;27;20467;-95
2022/10/23 02:55:46;;;;;;;36.08;20.27;;;10.40;99.90;;;;;;5114185;27;20043;-94
2022/10/23 02:58:19;;;;;;;37.50;21.10;;;10.40;99.90;;;;;;5129197;27;20047;-93
2022/10/23 03:00:49;;;;;;;34.65;20.90;;;10.50;99.90;;;;;;5111329;27;20051;-94
2022/10/23 03:03:18;;;;;;;40.65;21.88;;;10.50;99.90;;;;;;5075912;27;20462;-94
2022/10/23 03:05:44;;;;;;;41.95;22.95;;;10.60;99.90;;;;;;5074236;27;20092;-94
2022/10/23 03:08:10;;;;;;;42.85;22.05;;;10.60;99.90;;;;;;5091376;27;20046;-94
2022/10/23 03:10:39;;;;;;;44.55;21.70;;;10.60;99.90;;;;;;5111456;27;20172;-93
2022/10/23 03:13:05;;;;;;;39.03;22.30;;;10.60;99.90;;;;;;5091442;27;20126;-95
2022/10/23 03:15:31;;;;;;;41.58;22.98;;;10.70;99.90;;;;;;5122016;27;20042;-91
2022/10/23 03:17:57;;;;;;;36.67;20.80;;;10.70;99.90;;;;;;5109222;27;20027;-90
2022/10/23 03:20:22;;;;;;;41.58;22.45;;;10.70;99.90;;;;;;5109119;27;20033;-89
2022/10/23 03:22:48;;;;;;;42.38;23.20;;;10.60;99.90;;;;;;5133390;27;20047;-91
2022/10/23 03:25:13;;;;;;;43.58;21.35;;;10.70;99.90;;;;;;5130829;27;20028;-94
2022/10/23 03:27:39;;;;;;;48.85;22.92;;;10.60;99.90;;;;;;5110877;27;20050;-95
2022/10/23 03:30:05;;;;;;;44.30;22.10;;;10.50;99.90;;;;;;5107943;27;20051;-95
2022/10/23 03:32:31;;;;;;;40.10;21.30;;;10.60;99.90;;;;;;5121669;27;20047;-94
2022/10/23 03:34:56;;;;;;;41.78;21.80;;;10.60;99.90;;;;;;5103791;27;20506;-95
2022/10/23 03:37:22;;;;;;;42.30;22.23;;;10.60;99.90;;;;;;5124850;27;20045;-92
2022/10/23 03:39:48;;;;;;;45.05;21.60;;;10.50;99.90;;;;;;5104927;27;20130;-93
2022/10/23 03:42:13;;;;;;;46.70;21.48;;;10.50;99.90;;;;;;5123664;27;20043;-95
2022/10/23 03:44:39;;;;;;;40.88;21.75;;;10.50;99.90;;;;;;5093447;27;20049;-95
2022/10/23 03:47:05;;;;;;;39.45;21.05;;;10.50;99.90;;;;;;5112682;27;20043;-95
2022/10/23 03:49:30;;;;;;;38.65;21.48;;;10.60;99.90;;;;;;5127577;27;20047;-94
2022/10/23 03:51:56;;;;;;;45.15;22.90;;;10.60;99.90;;;;;;5109630;27;20039;-96
2022/10/23 03:54:23;;;;;;;39.95;21.83;;;10.60;99.90;;;;;;5124866;27;20047;-94
2022/10/23 03:56:49;;;;;;;40.13;22.58;;;10.50;99.90;;;;;;5110404;27;20424;-95
2022/10/23 03:59:15;;;;;;;39.55;21.38;;;10.50;99.90;;;;;;5113461;27;20043;-96
2022/10/23 04:01:40;;;;;;;41.65;21.42;;;10.50;99.90;;;;;;5110575;27;20047;-96
2022/10/23 04:04:06;;;;;;;41.90;21.38;;;10.50;99.90;;;;;;5126956;27;20047;-94
2022/10/23 04:06:32;;;;;;;43.42;21.15;;;10.50;99.90;;;;;;5111495;27;20043;-96
2022/10/23 04:08:57;;;;;;;39.28;20.92;;;10.50;99.90;;;;;;5098926;27;20612;-96
2022/10/23 04:11:24;;;;;;;37.85;20.95;;;10.50;99.90;;;;;;5113850;27;20047;-95
2022/10/23 04:13:50;;;;;;;39.90;21.63;;;10.50;99.90;;;;;;5115934;27;20047;-96
2022/10/23 04:16:15;;;;;;;35.20;20.90;;;10.50;99.90;;;;;;5115351;27;20096;-96
2022/10/23 04:18:41;;;;;;;42.20;21.92;;;10.50;99.90;;;;;;5112184;27;20062;-94
2022/10/23 04:21:07;;;;;;;43.45;22.00;;;10.50;99.90;;;;;;5077482;27;20040;-96
2022/10/23 04:23:33;;;;;;;44.92;21.10;;;10.50;99.90;;;;;;5086690;27;20045;-95
2022/10/23 04:25:58;;;;;;;47.42;21.50;;;10.50;99.90;;;;;;5102323;27;20566;-95
2022/10/23 04:28:24;;;;;;;43.08;21.02;;;10.40;99.90;;;;;;5077541;27;20470;-95
2022/10/23 04:30:50;;;;;;;38.50;20.88;;;10.40;99.90;;;;;;5128769;27;20039;-96
2022/10/23 04:33:15;;;;;;;38.35;19.65;;;10.40;99.90;;;;;;5133473;27;20042;-89
2022/10/23 04:35:41;;;;;;;41.90;21.63;;;10.40;99.90;;;;;;5117325;27;20099;-86
2022/10/23 04:38:07;;;;;;;40.78;20.60;;;10.40;99.90;;;;;;5112805;28;20032;-88
2022/10/23 04:40:32;;;;;;;42.78;22.17;;;10.70;99.90;;;;;;5104167;27;20079;-94
2022/10/23 04:42:58;;;;;;;37.63;20.05;;;10.40;99.90;;;;;;5082909;28;20052;-91
2022/10/23 04:45:23;;;;;;;38.30;20.58;;;10.40;99.90;;;;;;5091026;28;20054;-95
2022/10/23 04:47:49;;;;;;;42.38;21.42;;;10.40;99.90;;;;;;5101840;28;20044;-94
2022/10/23 04:50:16;;;;;;;36.65;20.55;;;10.40;99.90;;;;;;5107461;28;20063;-93
2022/10/23 04:52:41;;;;;;;43.60;22.92;;;10.80;99.90;;;;;;5094164;28;20112;-96
2022/10/23 04:55:07;;;;;;;44.92;20.73;;;10.40;99.90;;;;;;5059002;28;20088;-95
2022/10/23 04:57:33;;;;;;;44.05;22.48;;;10.40;99.90;;;;;;5074079;28;20044;-93
2022/10/23 04:59:59;;;;;;;41.03;22.70;;;10.40;99.90;;;;;;5087945;28;20047;-94
2022/10/23 05:02:26;;;;;;;44.95;22.60;;;10.30;99.90;;;;;;5105859;28;20043;-93
2022/10/23 05:04:52;;;;;;;50.55;22.60;;;10.30;99.90;;;;;;5070772;28;20050;-95
2022/10/23 05:07:17;;;;;;;39.05;22.13;;;10.30;99.90;;;;;;5091144;28;20087;-95
2022/10/23 05:09:43;;;;;;;41.90;22.80;;;10.30;99.90;;;;;;5087786;28;20067;-95
2022/10/23 05:12:09;;;;;;;41.28;21.23;;;10.30;99.90;;;;;;5075791;28;20048;-95
2022/10/23 05:14:34;;;;;;;44.38;21.50;;;10.20;99.90;;;;;;5090592;28;20055;-93
2022/10/23 05:17:02;;;;;;;39.72;22.13;;;10.30;99.90;;;;;;5057826;28;20036;-94
2022/10/23 05:19:32;;;;;;;43.28;22.02;;;10.30;99.90;;;;;;5078977;28;20044;-94
2022/10/23 05:21:58;;;;;;;40.50;22.35;;;10.20;99.90;;;;;;5063209;28;20048;-95
2022/10/23 05:24:24;;;;;;;40.72;19.83;;;10.20;99.90;;;;;;5078449;28;20036;-94
2022/10/23 05:26:51;;;;;;;40.38;21.70;;;10.30;99.90;;;;;;5059507;28;20289;-94
2022/10/23 05:29:18;;;;;;;36.40;21.58;;;10.30;99.90;;;;;;5071286;28;20040;-95
2022/10/23 05:31:43;;;;;;;42.78;22.08;;;10.20;99.90;;;;;;5074764;28;20059;-94
2022/10/23 05:34:13;;;;;;;40.53;21.73;;;10.20;99.90;;;;;;5079563;28;20051;-93
2022/10/23 05:36:38;;;;;;;38.17;21.52;;;10.10;99.90;;;;;;5081611;28;20039;-91
2022/10/23 05:39:04;;;;;;;45.70;23.40;;;10.10;99.90;;;;;;5079399;28;20480;-93
2022/10/23 05:41:30;;;;;;;41.25;22.38;;;10.20;99.90;;;;;;5081107;28;20048;-92
2022/10/23 05:43:55;;;;;;;41.08;20.23;;;10.20;99.90;;;;;;5078643;28;20107;-93
2022/10/23 05:46:24;;;;;;;49.47;23.08;;;10.10;99.90;;;;;;5057573;28;20052;-95
2022/10/23 05:48:50;;;;;;;40.22;22.10;;;10.10;99.90;;;;;;5072208;28;20052;-87
2022/10/23 05:51:19;;;;;;;44.92;21.42;;;10.00;99.90;;;;;;5095654;28;21096;-89
2022/10/23 05:53:46;;;;;;;42.10;21.65;;;10.00;99.90;;;;;;5093129;23;20044;-88
2022/10/23 05:56:17;;;;;;;44.45;22.52;;;10.00;99.90;;;;;;5233680;23;20059;-87
2022/10/23 05:58:46;;;;;;;42.85;21.15;;;10.50;99.90;;;;;;5228676;22;20056;-90
2022/10/23 06:01:16;;;;;;;40.55;20.63;;;10.50;99.90;;;;;;5060152;28;20064;-89
2022/10/23 06:03:50;;;;;;;41.08;21.42;;;9.20;99.90;;;;;;5091107;28;20044;-95
2022/10/23 06:06:16;;;;;;;40.88;20.67;;;10.10;99.90;;;;;;5075726;28;20067;-92
2022/10/23 06:08:42;;;;;;;47.20;22.05;;;10.30;99.90;;;;;;5093567;28;20032;-93
2022/10/23 06:11:14;;;;;;;45.83;23.63;;;10.20;99.90;;;;;;5071603;28;20484;-92
2022/10/23 06:13:44;;;;;;;45.63;22.27;;;9.70;99.90;;;;;;5090326;28;20119;-95
2022/10/23 06:16:17;;;;;;;40.38;21.20;;;10.20;99.90;;;;;;5082537;28;20542;-92
2022/10/23 06:18:43;;;;;;;37.40;19.92;;;10.20;99.90;;;;;;5073301;28;20106;-96
2022/10/23 06:21:09;;;;;;;46.58;23.30;;;10.30;99.90;;;;;;5090226;28;20041;-92
2022/10/23 06:23:36;;;;;;;44.88;21.63;;;10.20;99.90;;;;;;5108348;28;20048;-95
2022/10/23 06:26:02;;;;;;;45.63;21.92;;;10.20;99.90;;;;;;5089829;28;20079;-95
2022/10/23 06:28:28;;;;;;;44.65;22.75;;;10.30;99.90;;;;;;5068523;28;20092;-91
2022/10/23 06:30:54;;;;;;;46.08;23.30;;;10.20;99.90;;;;;;5070475;28;20481;-95
2022/10/23 06:33:19;;;;;;;45.75;22.98;;;10.20;99.90;;;;;;5046739;28;20044;-94
2022/10/23 06:35:45;;;;;;;50.78;24.02;;;10.20;99.90;;;;;;5099190;28;20045;-93
2022/10/23 06:38:11;;;;;;;48.70;21.92;;;10.20;99.90;;;;;;5087960;28;20045;-90
2022/10/23 06:40:37;;;;;;;49.63;23.75;;;10.30;99.90;;;;;;5085772;28;20049;-93
2022/10/23 06:43:03;;;;;;;46.40;23.83;;;10.30;99.90;;;;;;5066949;28;20068;-92
2022/10/23 06:45:31;;;;;;;45.30;22.45;;;10.30;99.90;;;;;;5089792;28;20071;-91
2022/10/23 06:47:57;;;;;;;43.70;23.17;;;10.40;99.90;;;;;;5076751;28;20124;-87
2022/10/23 06:50:24;;;;;;;46.50;22.58;;;10.40;99.90;;;;;;5093818;28;20032;-91
2022/10/23 06:52:49;;;;;;;42.80;21.13;;;10.40;99.90;;;;;;5095044;28;20098;-94
2022/10/23 06:55:15;;;;;;;40.13;21.42;;;10.40;99.90;;;;;;5078272;28;20037;-94
2022/10/23 06:57:41;;;;;;;39.60;21.63;;;10.40;99.90;;;;;;5093976;28;20041;-90
2022/10/23 07:00:08;;;;;;;40.15;22.20;;;10.50;99.90;;;;;;5090749;28;20052;-93
2022/10/23 07:02:36;;;;;;;50.25;22.25;;;10.50;99.90;;;;;;5059419;28;20044;-93
2022/10/23 07:05:02;;;;;;;42.03;21.95;;;10.50;99.90;;;;;;5075434;28;20088;-91
2022/10/23 07:07:31;;;;;;;43.08;21.52;;;10.60;99.90;;;;;;5076619;28;20056;-93
2022/10/23 07:09:56;;;;;;;42.35;21.73;;;10.60;99.90;;;;;;5086115;28;20036;-89
2022/10/23 07:12:22;;;;;;;45.13;22.98;;;10.60;99.90;;;;;;5078372;28;20089;-87
2022/10/23 07:14:48;;;;;;;42.50;20.48;;;10.70;99.90;;;;;;5061146;28;20029;-88
2022/10/23 07:17:13;;;;;;;38.65;19.75;;;10.70;99.90;;;;;;5073784;28;20726;-93
2022/10/23 07:19:39;;;;;;;41.15;21.05;;;10.70;99.90;;;;;;5040192;28;20052;-93
2022/10/23 07:22:04;;;;;;;39.80;21.05;;;10.70;99.90;;;;;;5042403;28;20056;-92
2022/10/23 07:24:35;;;;;;;31.30;20.35;;;10.70;99.90;;;;;;5044436;28;20115;-93
2022/10/23 07:27:02;;;;;;;36.17;19.38;;;10.80;99.90;;;;;;5062892;28;20198;-86
2022/10/23 07:29:27;;;;;;;34.97;19.80;;;10.80;99.90;;;;;;5050098;28;20058;-92
2022/10/23 07:31:54;;;;;;;32.85;19.90;;;10.80;99.90;;;;;;5067901;28;20044;-89
2022/10/23 07:34:20;;;;;;;37.50;19.33;;;10.90;99.90;;;;;;5075275;28;20037;-92
2022/10/23 07:36:46;;;;;;;33.03;18.63;;;10.90;99.90;;;;;;5051313;28;20041;-93
2022/10/23 07:39:11;;;;;;;29.85;16.27;;;10.90;99.90;;;;;;5021059;28;20057;-89
2022/10/23 07:41:37;;;;;;;31.60;19.80;;;11.00;99.90;;;;;;5063809;28;20056;-87
2022/10/23 07:44:03;;;;;;;30.48;15.80;;;11.00;99.90;;;;;;5061231;28;20131;-87
2022/10/23 07:46:29;;;;;;;28.27;16.27;;;11.20;99.90;;;;;;5048630;28;20044;-88
2022/10/23 07:48:54;;;;;;;28.90;16.08;;;11.20;99.90;;;;;;5049468;28;20041;-93
2022/10/23 07:51:20;;;;;;;26.00;15.05;;;11.30;99.90;;;;;;5029817;28;20132;-89
2022/10/23 07:53:46;;;;;;;26.45;14.57;;;11.30;99.90;;;;;;5063626;28;20037;-90
2022/10/23 07:56:21;;;;;;;24.35;13.52;;;11.40;99.90;;;;;;5031920;28;20045;-90
2022/10/23 07:58:47;;;;;;;20.10;13.70;;;11.50;99.90;;;;;;5043203;28;20398;-89
2022/10/23 08:01:18;;;;;;;22.90;15.43;;;11.50;99.90;;;;;;5065004;28;20044;-89
2022/10/23 08:03:44;;;;;;;26.95;15.25;;;11.50;99.90;;;;;;5067087;28;20488;-89
2022/10/23 08:06:09;;;;;;;23.10;14.80;;;11.50;99.90;;;;;;5066106;28;20052;-88
2022/10/23 08:08:35;;;;;;;21.10;13.73;;;11.50;99.90;;;;;;5041819;28;20132;-89
2022/10/23 08:11:01;;;;;;;22.67;14.77;;;11.70;99.90;;;;;;5059170;28;20527;-89
2022/10/23 08:13:26;;;;;;;21.58;13.25;;;11.60;99.90;;;;;;5055501;28;20919;-89
2022/10/23 08:15:52;;;;;;;22.80;13.38;;;11.80;99.90;;;;;;5042634;28;20052;-92
2022/10/23 08:18:18;;;;;;;18.92;13.35;;;11.90;99.90;;;;;;5062994;28;20127;-89
2022/10/23 08:20:45;;;;;;;18.02;11.70;;;11.90;99.90;;;;;;5040230;28;20079;-89
2022/10/23 08:23:11;;;;;;;18.25;12.07;;;12.00;99.90;;;;;;5037391;28;20132;-92
2022/10/23 08:25:38;;;;;;;18.02;12.27;;;12.10;99.90;;;;;;5046005;28;20071;-87
2022/10/23 08:28:05;;;;;;;15.82;11.38;;;12.00;99.90;;;;;;5059084;28;20096;-87
2022/10/23 08:30:30;;;;;;;16.83;11.52;;;12.20;99.90;;;;;;5079377;28;20041;-87
2022/10/23 08:32:56;;;;;;;26.88;12.13;;;12.30;99.90;;;;;;5069619;28;20055;-85
2022/10/23 08:35:22;;;;;;;15.68;11.65;;;12.40;99.90;;;;;;5051887;28;20076;-90
2022/10/23 08:37:47;;;;;;;19.38;12.35;;;12.40;99.90;;;;;;5038332;28;20040;-89
2022/10/23 08:40:17;;;;;;;22.02;12.38;;;12.00;99.90;;;;;;5052531;28;20041;-88
2022/10/23 08:42:44;;;;;;;19.55;11.77;;;12.60;99.90;;;;;;5061597;28;20045;-90
2022/10/23 08:45:43;;;;;;;18.48;11.48;;;12.70;99.90;;;;;;5036973;28;20087;-87
2022/10/23 08:48:13;;;;;;;15.38;10.50;;;12.80;99.90;;;;;;5033331;28;20103;-88
2022/10/23 08:50:39;;;;;;;18.98;10.88;;;12.90;99.90;;;;;;5039239;28;20084;-91
2022/10/23 08:53:37;;;;;;;13.30;10.10;;;13.00;99.90;;;;;;5055991;28;20528;-92
2022/10/23 08:56:05;;;;;;;16.05;9.75;;;13.10;99.90;;;;;;5043704;28;20041;-89
2022/10/23 08:58:38;;;;;;;14.90;9.10;;;13.20;99.90;;;;;;5043845;28;20052;-91
2022/10/23 09:01:27;;;;;;;13.63;9.93;;;13.30;99.90;;;;;;5058138;28;20049;-92
2022/10/23 09:03:52;;;;;;;13.20;9.85;;;13.30;99.90;;;;;;5037779;28;20048;-90
2022/10/23 09:06:40;;;;;;;18.52;10.65;;;13.30;99.90;;;;;;5044618;28;20121;-89
2022/10/23 09:09:24;;;;;;;19.20;9.13;;;13.40;99.90;;;;;;5027156;28;20111;-90
2022/10/23 09:11:55;;;;;;;14.52;8.70;;;13.50;99.90;;;;;;5063706;28;20045;-91
2022/10/23 09:14:47;;;;;;;11.60;8.35;;;13.60;99.90;;;;;;5063527;28;20060;-89
2022/10/23 09:17:22;;;;;;;12.23;8.38;;;13.70;99.90;;;;;;5038460;28;20083;-87
2022/10/23 09:19:50;;;;;;;11.10;8.25;;;13.80;99.90;;;;;;5061005;28;20396;-88
2022/10/23 09:22:15;;;;;;;13.68;8.20;;;13.80;99.90;;;;;;5042866;28;20037;-86
2022/10/23 09:24:42;;;;;;;11.00;7.85;;;13.80;99.90;;;;;;5045469;28;20122;-90
2022/10/23 09:27:09;;;;;;;13.10;8.55;;;14.00;99.90;;;;;;5028019;28;20060;-87
2022/10/23 09:29:35;;;;;;;14.32;7.90;;;13.90;99.90;;;;;;5047816;28;20037;-89
2022/10/23 09:32:03;;;;;;;18.33;8.40;;;14.10;99.90;;;;;;5043066;28;20048;-88
2022/10/23 09:34:29;;;;;;;15.35;7.90;;;14.30;99.90;;;;;;5058073;28;20366;-88
2022/10/23 09:36:57;;;;;;;11.32;7.80;;;14.30;99.90;;;;;;5026301;28;20114;-87
2022/10/23 09:39:54;;;;;;;13.10;7.22;;;14.40;99.90;;;;;;5060161;28;20041;-86
2022/10/23 09:42:24;;;;;;;10.57;7.07;;;14.40;99.90;;;;;;5058177;28;20044;-86
2022/10/23 09:44:51;;;;;;;10.00;7.50;;;14.50;99.90;;;;;;5071342;28;20029;-87
2022/10/23 09:47:22;;;;;;;11.15;8.20;;;14.50;99.90;;;;;;5067997;28;20052;-87
2022/10/23 09:49:53;;;;;;;11.48;6.50;;;14.40;99.90;;;;;;5064881;28;20049;-85
2022/10/23 09:52:35;;;;;;;9.00;6.72;;;14.60;99.90;;;;;;5090314;28;20042;-83
2022/10/23 09:55:01;;;;;;;8.48;7.07;;;14.70;99.90;;;;;;5051111;28;20056;-87
2022/10/23 09:57:34;;;;;;;8.80;6.55;;;14.60;99.90;;;;;;5039927;28;20405;-86
2022/10/23 10:00:16;;;;;;;10.52;6.80;;;14.70;99.90;;;;;;5067264;28;20541;-87
2022/10/23 10:02:54;;;;;;;7.93;6.45;;;15.00;99.90;;;;;;5038790;28;20033;-87
2022/10/23 10:05:31;;;;;;;8.95;6.38;;;14.80;99.90;;;;;;5060608;28;20395;-89
2022/10/23 10:08:19;;;;;;;9.60;6.18;;;14.80;99.90;;;;;;5043293;28;20045;-88
2022/10/23 10:10:48;;;;;;;7.43;6.53;;;14.90;99.90;;;;;;5061754;28;20040;-91
2022/10/23 10:13:37;;;;;;;10.38;6.70;;;14.90;99.90;;;;;;5036489;28;20125;-90
2022/10/23 10:16:25;;;;;;;12.90;6.00;;;15.10;99.90;;;;;;5012433;28;20115;-92
2022/10/23 10:18:57;;;;;;;7.57;5.55;;;15.20;99.90;;;;;;5036666;28;20088;-87
2022/10/23 10:21:41;;;;;;;7.25;5.30;;;15.30;99.90;;;;;;5049897;28;20055;-86
2022/10/23 10:24:13;;;;;;;10.52;5.63;;;16.20;99.90;;;;;;5067694;28;20110;-91
2022/10/23 10:26:54;;;;;;;8.48;5.63;;;15.60;99.90;;;;;;5064641;28;20531;-89
2022/10/23 10:29:40;;;;;;;10.70;5.70;;;15.70;99.90;;;;;;5048201;28;20063;-87
2022/10/23 10:32:31;;;;;;;13.98;5.28;;;15.80;99.90;;;;;;5064604;28;20084;-86
2022/10/23 10:35:24;;;;;;;7.57;5.20;;;16.00;99.90;;;;;;5062687;28;20427;-88
2022/10/23 10:37:56;;;;;;;8.17;5.20;;;16.00;99.90;;;;;;5085437;28;20555;-87
2022/10/23 10:40:24;;;;;;;10.32;5.63;;;16.00;99.90;;;;;;5039936;28;20112;-87
2022/10/23 10:43:11;;;;;;;8.30;5.55;;;16.00;99.90;;;;;;5059406;28;20044;-88
2022/10/23 10:45:46;;;;;;;8.82;5.63;;;16.00;99.90;;;;;;5073367;28;20040;-88
2022/10/23 10:48:20;;;;;;;9.10;5.78;;;16.10;99.90;;;;;;5072844;28;20492;-87
2022/10/23 10:51:07;;;;;;;7.47;5.03;;;16.10;99.90;;;;;;5041723;28;20048;-87
2022/10/23 10:54:02;;;;;;;7.18;5.20;;;16.10;99.90;;;;;;5074993;28;20049;-88
2022/10/23 10:56:29;;;;;;;7.72;5.43;;;16.00;99.90;;;;;;5053322;28;20044;-86
2022/10/23 10:59:22;;;;;;;7.82;5.30;;;16.00;99.90;;;;;;5062767;28;20068;-86
2022/10/23 11:02:18;;;;;;;8.07;5.03;;;16.20;99.90;;;;;;5032059;28;20299;-87
2022/10/23 11:05:33;;;;;;;15.82;8.50;;;16.20;99.90;;;;;;5072834;28;20147;-87
2022/10/23 11:08:23;;;;;;;8.45;5.22;;;16.10;99.90;;;;;;5075741;28;20121;-87
2022/10/23 11:10:52;;;;;;;10.38;5.25;;;16.10;99.90;;;;;;5072708;28;20394;-85
2022/10/23 11:13:37;;;;;;;11.35;5.00;;;16.10;99.90;;;;;;5057779;28;20037;-89
2022/10/23 11:16:41;;;;;;;9.55;5.68;;;16.10;99.90;;;;;;5038224;28;20045;-89
2022/10/23 11:19:19;;;;;;;7.72;4.45;;;16.10;99.90;;;;;;5036051;28;20055;-87
2022/10/23 11:21:54;;;;;;;7.30;5.22;;;16.10;99.90;;;;;;5064593;28;20048;-89
2022/10/23 11:24:41;;;;;;;9.95;5.38;;;16.10;99.90;;;;;;5074110;28;20143;-90
2022/10/23 11:27:21;;;;;;;9.90;5.53;;;16.00;99.90;;;;;;5061036;28;20053;-89
2022/10/23 11:30:24;;;;;;;6.22;4.82;;;16.00;99.90;;;;;;5041676;28;20290;-88
2022/10/23 11:33:27;;;;;;;8.98;5.80;;;16.00;99.90;;;;;;5063005;28;20048;-87
2022/10/23 11:36:15;;;;;;;11.90;5.50;;;16.00;99.90;;;;;;5060414;28;20521;-87
2022/10/23 11:38:42;;;;;;;8.25;5.55;;;16.00;99.90;;;;;;5060538;28;20056;-86
2022/10/23 11:41:22;;;;;;;9.75;6.18;;;16.00;99.90;;;;;;5044467;28;20149;-87
2022/10/23 11:43:51;;;;;;;6.90;5.10;;;16.00;99.90;;;;;;5062746;28;20504;-86
2022/10/23 11:46:37;;;;;;;9.25;5.03;;;16.00;99.90;;;;;;5078471;28;20139;-86
2022/10/23 11:49:04;;;;;;;8.73;5.20;;;16.20;99.90;;;;;;5072572;28;20060;-86
2022/10/23 11:51:34;;;;;;;8.60;5.20;;;16.00;99.90;;;;;;5066783;28;20197;-86
2022/10/23 11:54:09;;;;;;;7.43;5.00;;;16.00;99.90;;;;;;5057873;28;20055;-86
2022/10/23 11:56:35;;;;;;;8.75;5.38;;;16.10;99.90;;;;;;5072867;28;20047;-83
2022/10/23 11:59:50;;;;;;;8.18;4.90;;;16.00;99.90;;;;;;5072206;28;20162;-88
2022/10/23 12:02:27;;;;;;;6.03;4.40;;;16.10;99.90;;;;;;5003251;28;20533;-86
2022/10/23 12:04:52;;;;;;;6.05;4.95;;;16.10;99.90;;;;;;5045579;28;20080;-88
2022/10/23 12:07:41;;;;;;;8.82;5.15;;;16.10;99.90;;;;;;5041772;28;20072;-87
2022/10/23 12:10:26;;;;;;;11.63;5.53;;;16.00;99.90;;;;;;5045593;28;20052;-88
2022/10/23 12:12:56;;;;;;;6.32;4.40;;;16.10;99.90;;;;;;5041570;28;20489;-86
2022/10/23 12:15:22;;;;;;;8.50;4.32;;;16.00;99.90;;;;;;5043740;28;20106;-85
2022/10/23 12:17:49;;;;;;;8.40;4.30;;;16.00;99.90;;;;;;5027903;28;20453;-87
2022/10/23 12:20:55;;;;;;;6.38;4.10;;;16.10;99.90;;;;;;5055488;28;20036;-87
2022/10/23 12:24:02;;;;;;;8.60;4.93;;;16.10;99.90;;;;;;5051025;28;20114;-84
2022/10/23 12:27:03;;;;;;;6.45;4.68;;;16.10;99.90;;;;;;5017583;28;20034;-85
2022/10/23 12:29:47;;;;;;;6.85;4.22;;;16.30;99.90;;;;;;5008080;28;20057;-85
2022/10/23 12:32:19;;;;;;;;;;;16.20;99.90;;;;;;5041422;28;20057;-88
2022/10/23 12:35:04;;;;;;;7.30;4.82;;;16.30;99.90;;;;;;5035986;28;20436;-89
2022/10/23 12:37:38;;;;;;;5.68;4.25;;;16.20;99.90;;;;;;5065166;28;20098;-88
2022/10/23 12:40:08;;;;;;;6.18;4.20;;;16.30;99.90;;;;;;5067115;28;20040;-89
2022/10/23 12:42:33;;;;;;;7.20;3.90;;;16.40;99.90;;;;;;5071357;28;20045;-88
2022/10/23 12:44:59;;;;;;;8.05;4.25;;;16.50;99.90;;;;;;5036999;28;20037;-86
2022/10/23 12:47:25;;;;;;;5.82;4.88;;;16.50;99.90;;;;;;5070890;28;20048;-85
2022/10/23 12:49:51;;;;;;;9.13;4.15;;;16.40;99.90;;;;;;5053495;28;20113;-86
2022/10/23 12:52:18;;;;;;;8.30;4.43;;;16.50;99.90;;;;;;5071567;28;20090;-90
2022/10/23 12:54:43;;;;;;;7.70;4.90;;;16.40;99.90;;;;;;5054612;28;20056;-87
2022/10/23 12:57:21;;;;;;;7.68;4.10;;;16.30;99.90;;;;;;5054331;28;20044;-86